createdAt,value
2024-03-28T00:00:58.872Z,99465.84
2024-03-28T00:02:01.810Z,99460.48
2024-03-28T00:03:05.167Z,99456.09
2024-03-28T00:04:08.477Z,99460.48
2024-03-28T00:05:11.221Z,99458.52
2024-03-28T00:06:14.564Z,99456.59
2024-03-28T00:07:17.282Z,99454.75
2024-03-28T00:08:19.891Z,99460.11
2024-03-28T00:09:23.697Z,99453.91
2024-03-28T00:10:27.711Z,99458.39
2024-03-28T00:11:30.328Z,99458.52
2024-03-28T00:12:33.118Z,99465.59
2024-03-28T00:13:35.799Z,99459.52
2024-03-28T00:14:38.856Z,99455.13
2024-03-28T00:15:44.131Z,99451.57
2024-03-28T00:16:48.262Z,99452.56
2024-03-28T00:17:51.526Z,99449.88
2024-03-28T00:18:55.129Z,99454.38
2024-03-28T00:19:57.770Z,99454.49
2024-03-28T00:21:02.375Z,99447.55
2024-03-28T00:22:05.559Z,99451.09
2024-03-28T00:23:08.849Z,99450.22
2024-03-28T00:24:11.718Z,99451.94
2024-03-28T00:25:15.233Z,99442.31
2024-03-28T00:26:18.413Z,99448.66
2024-03-28T00:27:21.472Z,99444.86
2024-03-28T00:28:24.846Z,99444.02
2024-03-28T00:29:27.516Z,99443.18
2024-03-28T00:30:30.717Z,99444.27
2024-03-28T00:31:33.462Z,99442.55
2024-03-28T00:32:36.158Z,99448.03
2024-03-28T00:33:39.441Z,99443.64
2024-03-28T00:34:43.102Z,99441.83
2024-03-28T00:35:49.777Z,99442.67
2024-03-28T00:36:52.618Z,99444.52
2024-03-28T00:37:56.931Z,99438.28
2024-03-28T00:39:00.398Z,99441.83
2024-03-28T00:40:04.555Z,99433.80
2024-03-28T00:41:08.552Z,99430.13
2024-03-28T00:42:11.518Z,99434.52
2024-03-28T00:43:15.076Z,99433.55
2024-03-28T00:44:17.755Z,99435.27
2024-03-28T00:45:20.818Z,99429.91
2024-03-28T00:46:23.951Z,99435.27
2024-03-28T00:47:27.233Z,99433.31
2024-03-28T00:48:29.969Z,99425.27
2024-03-28T00:49:32.598Z,99427.95
2024-03-28T00:50:35.572Z,99425.15
2024-03-28T00:51:38.434Z,99418.83
2024-03-28T00:52:41.804Z,99424.19
2024-03-28T00:53:44.608Z,99423.22
2024-03-28T00:54:49.887Z,99417.86
2024-03-28T00:55:55.095Z,99421.38
2024-03-28T00:56:58.047Z,99409.91
2024-03-28T00:58:00.781Z,99416.87
2024-03-28T00:59:04.064Z,99413.34
2024-03-28T01:00:08.686Z,99405.56
2024-03-28T01:01:11.976Z,99410.91
2024-03-28T01:02:15.052Z,99403.97
2024-03-28T01:03:17.998Z,99405.80
2024-03-28T01:04:22.159Z,99395.18
2024-03-28T01:05:26.240Z,99400.54
2024-03-28T01:06:29.610Z,99400.54
2024-03-28T01:07:32.521Z,99397.02
2024-03-28T01:08:35.356Z,99390.70
2024-03-28T01:09:38.960Z,99388.86
2024-03-28T01:10:43.267Z,99389.61
2024-03-28T01:11:46.026Z,99386.80
2024-03-28T01:12:48.799Z,99397.27
2024-03-28T01:13:51.975Z,99392.75
2024-03-28T01:14:55.003Z,99389.23
2024-03-28T01:15:59.973Z,99391.16
2024-03-28T01:17:03.498Z,99382.28
2024-03-28T01:18:06.748Z,99382.16
2024-03-28T01:19:10.238Z,99389.23
2024-03-28T01:20:13.564Z,99380.36
2024-03-28T01:21:16.496Z,99380.45
2024-03-28T01:22:20.913Z,99384.00
2024-03-28T01:23:23.997Z,99380.36
2024-03-28T01:24:26.718Z,99379.36
2024-03-28T01:25:30.238Z,99375.72
2024-03-28T01:26:33.478Z,99378.27
2024-03-28T01:27:36.838Z,99374.88
2024-03-28T01:28:39.708Z,99376.69
2024-03-28T01:29:42.740Z,99374.88
2024-03-28T01:30:46.032Z,99375.72
2024-03-28T01:31:49.020Z,99376.69
2024-03-28T01:32:51.828Z,99377.43
2024-03-28T01:33:54.488Z,99373.78
2024-03-28T01:34:57.159Z,99373.78
2024-03-28T01:36:00.833Z,99369.39
2024-03-28T01:37:04.016Z,99375.72
2024-03-28T01:38:06.768Z,99372.20
2024-03-28T01:39:09.498Z,99370.36
2024-03-28T01:40:13.734Z,99370.61
2024-03-28T01:41:16.539Z,99380.36
2024-03-28T01:42:19.244Z,99379.36
2024-03-28T01:43:23.097Z,99369.52
2024-03-28T01:44:26.169Z,99372.07
2024-03-28T01:45:28.895Z,99377.30
2024-03-28T01:46:43.185Z,99371.82
2024-03-28T01:48:42.542Z,99377.43
2024-03-28T01:49:45.292Z,99374.75
2024-03-28T01:50:49.180Z,99377.30
2024-03-28T01:51:52.324Z,99379.23
2024-03-28T01:52:56.367Z,99374.75
2024-03-28T01:54:00.204Z,99372.07
2024-03-28T01:55:04.069Z,99380.95
2024-03-28T01:56:06.892Z,99374.75
2024-03-28T01:57:13.909Z,99373.78
2024-03-28T01:58:15.920Z,99380.95
2024-03-28T01:59:18.923Z,99379.14
2024-03-28T02:00:22.527Z,99372.07
2024-03-28T02:01:25.244Z,99378.27
2024-03-28T02:02:28.053Z,99375.59
2024-03-28T02:03:31.745Z,99376.47
2024-03-28T02:04:37.407Z,99375.47
2024-03-28T02:05:40.975Z,99373.78
2024-03-28T02:06:43.915Z,99379.98
2024-03-28T02:07:46.487Z,99376.47
2024-03-28T02:08:50.406Z,99376.47
2024-03-28T02:09:54.095Z,99377.30
2024-03-28T02:10:57.333Z,99372.91
2024-03-28T02:12:00.614Z,99377.43
2024-03-28T02:13:04.992Z,99376.56
2024-03-28T02:14:07.871Z,99363.78
2024-03-28T02:15:10.597Z,99363.78
2024-03-28T02:16:14.225Z,99376.69
2024-03-28T02:17:16.798Z,99376.56
2024-03-28T02:18:23.079Z,99373.04
2024-03-28T02:19:25.950Z,99376.69
2024-03-28T02:20:28.996Z,99366.84
2024-03-28T02:21:31.956Z,99371.20
2024-03-28T02:22:34.656Z,99368.64
2024-03-28T02:23:37.325Z,99365.25
2024-03-28T02:24:39.906Z,99365.25
2024-03-28T02:25:43.478Z,99374.00
2024-03-28T02:26:47.232Z,99367.68
2024-03-28T02:27:50.262Z,99366.72
2024-03-28T02:28:53.869Z,99367.55
2024-03-28T02:29:57.090Z,99366.59
2024-03-28T02:30:59.915Z,99368.42
2024-03-28T02:32:02.802Z,99365.75
2024-03-28T02:33:05.813Z,99366.72
2024-03-28T02:34:09.534Z,99360.48
2024-03-28T02:35:12.268Z,99362.45
2024-03-28T02:36:15.310Z,99359.89
2024-03-28T02:37:18.506Z,99360.98
2024-03-28T02:38:22.066Z,99351.36
2024-03-28T02:39:25.594Z,99359.39
2024-03-28T02:40:28.552Z,99365.72
2024-03-28T02:41:32.855Z,99365.72
2024-03-28T02:42:36.506Z,99367.43
2024-03-28T02:43:39.406Z,99363.78
2024-03-28T02:44:42.034Z,99356.72
2024-03-28T02:45:45.352Z,99361.11
2024-03-28T02:46:48.272Z,99362.95
2024-03-28T02:47:50.909Z,99361.95
2024-03-28T02:48:53.956Z,99358.43
2024-03-28T02:49:57.558Z,99359.27
2024-03-28T02:51:00.458Z,99364.62
2024-03-28T02:52:04.425Z,99356.47
2024-03-28T02:53:07.371Z,99355.50
2024-03-28T02:54:11.187Z,99355.38
2024-03-28T02:55:14.180Z,99359.89
2024-03-28T02:56:17.450Z,99356.47
2024-03-28T02:57:24.197Z,99357.34
2024-03-28T02:58:27.280Z,99360.02
2024-03-28T02:59:30.191Z,99352.82
2024-03-28T03:00:33.028Z,99361.83
2024-03-28T03:01:35.845Z,99356.47
2024-03-28T03:02:38.926Z,99350.27
2024-03-28T03:03:41.667Z,99349.30
2024-03-28T03:04:44.397Z,99352.95
2024-03-28T03:05:50.304Z,99350.27
2024-03-28T03:06:54.005Z,99355.75
2024-03-28T03:07:56.953Z,99359.27
2024-03-28T03:09:01.138Z,99355.75
2024-03-28T03:10:04.761Z,99351.23
2024-03-28T03:11:07.389Z,99355.63
2024-03-28T03:12:10.035Z,99356.59
2024-03-28T03:13:13.872Z,99354.04
2024-03-28T03:14:17.232Z,99352.33
2024-03-28T03:15:19.980Z,99345.87
2024-03-28T03:16:22.937Z,99354.78
2024-03-28T03:17:25.853Z,99347.59
2024-03-28T03:18:28.862Z,99341.27
2024-03-28T03:19:31.768Z,99341.27
2024-03-28T03:20:36.477Z,99338.59
2024-03-28T03:21:39.262Z,99337.72
2024-03-28T03:22:44.044Z,99337.84
2024-03-28T03:23:49.696Z,99337.84
2024-03-28T03:24:54.651Z,99334.20
2024-03-28T03:26:00.823Z,99332.36
2024-03-28T03:27:05.092Z,99340.39
2024-03-28T03:28:26.693Z,99332.23
2024-03-28T03:29:48.061Z,99333.11
2024-03-28T03:31:09.181Z,99332.85
2024-03-28T03:32:33.773Z,99330.92
2024-03-28T03:33:56.813Z,99328.95
2024-03-28T03:35:00.454Z,99334.06
2024-03-28T03:36:04.019Z,99333.09
2024-03-28T03:37:11.966Z,99318.24
2024-03-28T03:38:14.765Z,99318.24
2024-03-28T03:39:18.180Z,99326.77
2024-03-28T03:40:20.994Z,99328.45
2024-03-28T03:41:24.698Z,99327.36
2024-03-28T03:42:27.263Z,99327.36
2024-03-28T03:43:30.164Z,99324.68
2024-03-28T03:44:33.713Z,99328.10
2024-03-28T03:45:36.470Z,99332.50
2024-03-28T03:46:40.721Z,99337.60
2024-03-28T03:47:43.828Z,99326.76
2024-03-28T03:48:46.450Z,99320.43
2024-03-28T03:49:49.174Z,99322.11
2024-03-28T03:50:53.442Z,99325.66
2024-03-28T03:51:56.618Z,99318.47
2024-03-28T03:52:59.724Z,99322.86
2024-03-28T03:54:02.440Z,99315.78
2024-03-28T03:55:06.219Z,99306.91
2024-03-28T03:56:09.115Z,99309.58
2024-03-28T03:57:12.136Z,99314.95
2024-03-28T03:58:15.813Z,99301.55
2024-03-28T03:59:19.583Z,99312.13
2024-03-28T04:00:22.487Z,99303.12
2024-03-28T04:01:26.792Z,99307.36
2024-03-28T04:02:29.406Z,99302.00
2024-03-28T04:03:31.954Z,99309.95
2024-03-28T04:04:34.516Z,99304.33
2024-03-28T04:05:37.197Z,99300.55
2024-03-28T04:06:40.309Z,99296.87
2024-03-28T04:07:43.674Z,99305.66
2024-03-28T04:08:46.496Z,99302.00
2024-03-28T04:09:49.169Z,99297.35
2024-03-28T04:10:52.030Z,99295.41
2024-03-28T04:11:55.735Z,99282.01
2024-03-28T04:12:59.114Z,99286.50
2024-03-28T04:14:02.100Z,99289.19
2024-03-28T04:15:06.141Z,99284.69
2024-03-28T04:16:09.592Z,99289.19
2024-03-28T04:17:14.112Z,99287.47
2024-03-28T04:18:17.579Z,99287.38
2024-03-28T04:19:20.850Z,99285.66
2024-03-28T04:20:23.738Z,99288.21
2024-03-28T04:21:30.153Z,99282.98
2024-03-28T04:22:33.478Z,99284.69
2024-03-28T04:23:36.622Z,99281.88
2024-03-28T04:24:39.441Z,99279.20
2024-03-28T04:25:42.063Z,99285.44
2024-03-28T04:26:45.128Z,99280.91
2024-03-28T04:27:47.791Z,99278.23
2024-03-28T04:28:51.349Z,99272.97
2024-03-28T04:30:01.675Z,99272.97
2024-03-28T04:30:59.367Z,99279.68
2024-03-28T04:32:03.093Z,99278.71
2024-03-28T04:33:05.864Z,99278.71
2024-03-28T04:34:09.212Z,99275.06
2024-03-28T04:35:12.712Z,99277.74
2024-03-28T04:36:15.974Z,99269.70
2024-03-28T04:37:18.997Z,99274.09
2024-03-28T04:38:22.609Z,99272.25
2024-03-28T04:39:25.319Z,99268.59
2024-03-28T04:40:28.745Z,99272.13
2024-03-28T04:41:32.152Z,99270.28
2024-03-28T04:42:35.569Z,99264.08
2024-03-28T04:43:39.444Z,99263.95
2024-03-28T04:44:43.267Z,99267.50
2024-03-28T04:45:46.015Z,99262.13
2024-03-28T04:46:48.814Z,99263.95
2024-03-28T04:47:54.303Z,99263.81
2024-03-28T04:48:56.910Z,99263.81
2024-03-28T04:49:59.780Z,99264.81
2024-03-28T04:51:02.966Z,99261.13
2024-03-28T04:52:06.362Z,99258.45
2024-03-28T04:53:09.128Z,99258.45
2024-03-28T04:54:12.308Z,99259.32
2024-03-28T04:55:15.310Z,99253.83
2024-03-28T04:56:18.127Z,99254.80
2024-03-28T04:57:21.116Z,99261.87
2024-03-28T04:58:24.941Z,99258.19
2024-03-28T04:59:28.143Z,99260.87
2024-03-28T05:00:31.013Z,99255.51
2024-03-28T05:01:34.211Z,99260.77
2024-03-28T05:02:37.499Z,99252.72
2024-03-28T05:03:40.258Z,99256.38
2024-03-28T05:04:43.302Z,99253.56
2024-03-28T05:05:49.661Z,99254.41
2024-03-28T05:06:52.396Z,99250.75
2024-03-28T05:07:55.134Z,99256.11
2024-03-28T05:08:59.137Z,99245.52
2024-03-28T05:10:04.241Z,99249.91
2024-03-28T05:11:07.795Z,99249.91
2024-03-28T05:12:12.273Z,99247.23
2024-03-28T05:13:15.602Z,99242.70
2024-03-28T05:14:19.209Z,99238.31
2024-03-28T05:15:22.206Z,99240.02
2024-03-28T05:16:26.076Z,99241.00
2024-03-28T05:17:29.672Z,99239.19
2024-03-28T05:18:33.957Z,99244.55
2024-03-28T05:19:37.885Z,99244.55
2024-03-28T05:20:42.491Z,99244.55
2024-03-28T05:21:45.247Z,99233.82
2024-03-28T05:22:48.017Z,99239.19
2024-03-28T05:23:52.230Z,99231.14
2024-03-28T05:24:56.354Z,99231.98
2024-03-28T05:25:59.092Z,99223.09
2024-03-28T05:27:03.389Z,99231.98
2024-03-28T05:28:07.318Z,99223.94
2024-03-28T05:29:10.133Z,99219.55
2024-03-28T05:30:15.310Z,99222.23
2024-03-28T05:31:19.064Z,99225.91
2024-03-28T05:32:21.887Z,99223.23
2024-03-28T05:33:24.537Z,99218.70
2024-03-28T05:34:27.580Z,99221.39
2024-03-28T05:35:31.227Z,99222.36
2024-03-28T05:36:36.356Z,99223.23
2024-03-28T05:37:39.219Z,99227.72
2024-03-28T05:38:42.548Z,99216.99
2024-03-28T05:39:45.315Z,99221.52
2024-03-28T05:40:48.921Z,99216.99
2024-03-28T05:41:51.652Z,99216.02
2024-03-28T05:42:59.285Z,99210.66
2024-03-28T05:44:02.587Z,99212.50
2024-03-28T05:45:07.138Z,99214.31
2024-03-28T05:46:10.845Z,99214.18
2024-03-28T05:47:14.644Z,99210.80
2024-03-28T05:48:18.601Z,99213.47
2024-03-28T05:49:22.161Z,99214.31
2024-03-28T05:50:25.076Z,99216.16
2024-03-28T05:51:28.813Z,99216.16
2024-03-28T05:52:31.630Z,99220.55
2024-03-28T05:53:34.408Z,99217.87
2024-03-28T05:54:38.621Z,99220.55
2024-03-28T05:55:43.072Z,99225.91
2024-03-28T05:56:46.623Z,99212.50
2024-03-28T05:57:49.714Z,99219.67
2024-03-28T05:58:52.347Z,99219.67
2024-03-28T05:59:55.701Z,99226.75
2024-03-28T06:00:58.723Z,99216.99
2024-03-28T06:02:01.386Z,99218.70
2024-03-28T06:03:04.558Z,99219.67
2024-03-28T06:04:07.579Z,99219.67
2024-03-28T06:05:12.206Z,99221.52
2024-03-28T06:06:16.051Z,99218.84
2024-03-28T06:07:19.166Z,99213.47
2024-03-28T06:08:21.880Z,99210.80
2024-03-28T06:09:25.417Z,99215.28
2024-03-28T06:10:29.057Z,99217.13
2024-03-28T06:11:31.576Z,99208.24
2024-03-28T06:12:34.137Z,99215.28
2024-03-28T06:13:36.977Z,99211.77
2024-03-28T06:14:41.329Z,99204.69
2024-03-28T06:15:45.424Z,99204.69
2024-03-28T06:16:48.233Z,99198.49
2024-03-28T06:17:51.279Z,99194.84
2024-03-28T06:18:54.392Z,99185.92
2024-03-28T06:19:57.019Z,99184.11
2024-03-28T06:21:05.769Z,99186.80
2024-03-28T06:22:09.008Z,99184.11
2024-03-28T06:23:12.755Z,99177.75
2024-03-28T06:24:15.767Z,99182.14
2024-03-28T06:25:20.699Z,99182.14
2024-03-28T06:26:24.039Z,99179.45
2024-03-28T06:27:27.078Z,99179.45
2024-03-28T06:28:31.884Z,99176.77
2024-03-28T06:29:37.036Z,99181.16
2024-03-28T06:30:41.226Z,99168.73
2024-03-28T06:31:45.624Z,99172.65
2024-03-28T06:32:48.353Z,99165.71
2024-03-28T06:33:51.521Z,99166.72
2024-03-28T06:34:55.634Z,99171.20
2024-03-28T06:35:58.965Z,99175.86
2024-03-28T06:37:03.233Z,99171.47
2024-03-28T06:38:06.047Z,99170.63
2024-03-28T06:39:12.689Z,99168.09
2024-03-28T06:40:16.781Z,99170.77
2024-03-28T06:41:19.929Z,99171.73
2024-03-28T06:42:23.563Z,99166.38
2024-03-28T06:43:26.644Z,99168.92
2024-03-28T06:44:29.342Z,99161.85
2024-03-28T06:45:32.161Z,99166.38
2024-03-28T06:46:35.326Z,99167.48
2024-03-28T06:47:38.993Z,99163.93
2024-03-28T06:48:43.770Z,99156.86
2024-03-28T06:49:46.698Z,99158.94
2024-03-28T06:50:50.259Z,99150.19
2024-03-28T06:51:53.008Z,99159.06
2024-03-28T06:52:55.830Z,99150.05
2024-03-28T06:53:58.680Z,99148.95
2024-03-28T06:55:02.371Z,99148.81
2024-03-28T06:56:06.059Z,99151.50
2024-03-28T06:57:08.734Z,99143.45
2024-03-28T06:58:11.827Z,99146.97
2024-03-28T06:59:14.590Z,99145.90
2024-03-28T07:00:17.702Z,99135.05
2024-03-28T07:01:20.813Z,99131.39
2024-03-28T07:02:23.650Z,99135.78
2024-03-28T07:03:27.047Z,99136.62
2024-03-28T07:04:30.257Z,99128.58
2024-03-28T07:05:33.568Z,99133.23
2024-03-28T07:06:36.645Z,99135.17
2024-03-28T07:07:40.652Z,99129.81
2024-03-28T07:08:43.453Z,99125.42
2024-03-28T07:09:46.416Z,99133.70
2024-03-28T07:10:49.321Z,99127.64
2024-03-28T07:11:52.161Z,99133.00
2024-03-28T07:12:55.741Z,99129.45
2024-03-28T07:13:58.635Z,99124.09
2024-03-28T07:15:03.146Z,99116.05
2024-03-28T07:16:08.160Z,99118.59
2024-03-28T07:17:11.103Z,99124.83
2024-03-28T07:18:14.241Z,99120.30
2024-03-28T07:19:17.187Z,99123.72
2024-03-28T07:20:20.264Z,99122.75
2024-03-28T07:21:23.128Z,99123.62
2024-03-28T07:22:25.863Z,99117.25
2024-03-28T07:23:30.647Z,99115.44
2024-03-28T07:24:33.385Z,99126.87
2024-03-28T07:25:37.812Z,99122.24
2024-03-28T07:26:41.533Z,99124.79
2024-03-28T07:27:44.729Z,99119.56
2024-03-28T07:28:48.302Z,99122.38
2024-03-28T07:29:52.208Z,99119.83
2024-03-28T07:30:55.347Z,99120.67
2024-03-28T07:31:58.528Z,99117.02
2024-03-28T07:33:02.218Z,99112.48
2024-03-28T07:34:05.386Z,99103.75
2024-03-28T07:35:09.568Z,99101.06
2024-03-28T07:36:13.086Z,99110.78
2024-03-28T07:37:16.072Z,99107.13
2024-03-28T07:38:19.033Z,99107.97
2024-03-28T07:39:25.207Z,99104.58
2024-03-28T07:40:28.055Z,99101.77
2024-03-28T07:41:31.150Z,99103.61
2024-03-28T07:42:33.783Z,99097.52
2024-03-28T07:43:37.074Z,99096.67
2024-03-28T07:44:40.180Z,99101.30
2024-03-28T07:45:43.610Z,99089.61
2024-03-28T07:46:46.752Z,99094.97
2024-03-28T07:47:49.596Z,99093.36
2024-03-28T07:48:52.277Z,99088.77
2024-03-28T07:49:54.846Z,99088.77
2024-03-28T07:50:58.866Z,99092.16
2024-03-28T07:52:03.072Z,99092.16
2024-03-28T07:53:07.136Z,99090.34
2024-03-28T07:54:09.936Z,99084.84
2024-03-28T07:55:14.982Z,99081.16
2024-03-28T07:56:17.898Z,99092.75
2024-03-28T07:57:20.862Z,99087.39
2024-03-28T07:58:25.954Z,99087.39
2024-03-28T07:59:28.753Z,99083.73
2024-03-28T08:00:31.799Z,99082.87
2024-03-28T08:01:36.509Z,99076.66
2024-03-28T08:02:39.303Z,99067.66
2024-03-28T08:03:42.736Z,99071.17
2024-03-28T08:04:46.153Z,99082.73
2024-03-28T08:05:50.561Z,99078.37
2024-03-28T08:06:53.435Z,99077.64
2024-03-28T08:07:56.053Z,99079.62
2024-03-28T08:08:58.875Z,99087.66
2024-03-28T08:10:02.906Z,99079.48
2024-03-28T08:11:06.462Z,99076.80
2024-03-28T08:12:09.742Z,99073.38
2024-03-28T08:13:12.752Z,99080.59
2024-03-28T08:14:16.177Z,99085.95
2024-03-28T08:15:18.756Z,99074.36
2024-03-28T08:16:21.450Z,99071.58
2024-03-28T08:17:25.774Z,99070.57
2024-03-28T08:18:28.838Z,99067.75
2024-03-28T08:19:32.281Z,99069.46
2024-03-28T08:20:35.283Z,99065.81
2024-03-28T08:21:38.076Z,99066.64
2024-03-28T08:22:41.373Z,99057.63
2024-03-28T08:23:44.562Z,99067.52
2024-03-28T08:24:47.884Z,99058.60
2024-03-28T08:25:50.760Z,99064.97
2024-03-28T08:26:53.904Z,99063.96
2024-03-28T08:27:58.703Z,99070.20
2024-03-28T08:29:02.857Z,99056.05
2024-03-28T08:30:08.326Z,99060.72
2024-03-28T08:31:12.179Z,99062.66
2024-03-28T08:32:16.442Z,99059.98
2024-03-28T08:33:20.844Z,99058.41
2024-03-28T08:34:23.738Z,99058.52
2024-03-28T08:35:27.603Z,99060.36
2024-03-28T08:36:30.396Z,99064.74
2024-03-28T08:37:33.498Z,99060.12
2024-03-28T08:38:36.753Z,99050.13
2024-03-28T08:39:39.869Z,99053.64
2024-03-28T08:40:43.946Z,99064.09
2024-03-28T08:41:46.896Z,99056.92
2024-03-28T08:42:49.543Z,99048.75
2024-03-28T08:43:52.256Z,99049.59
2024-03-28T08:44:55.132Z,99046.91
2024-03-28T08:45:58.350Z,99045.93
2024-03-28T08:47:01.279Z,99052.27
2024-03-28T08:48:06.016Z,99057.63
2024-03-28T08:49:10.302Z,99048.61
2024-03-28T08:50:14.927Z,99046.06
2024-03-28T08:51:19.744Z,99047.64
2024-03-28T08:52:23.228Z,99046.77
2024-03-28T08:53:28.654Z,99051.29
2024-03-28T08:54:32.091Z,99046.91
2024-03-28T08:55:34.860Z,99043.25
2024-03-28T08:56:37.639Z,99046.91
2024-03-28T08:57:40.713Z,99054.95
2024-03-28T08:58:45.191Z,99053.38
2024-03-28T08:59:49.406Z,99059.01
2024-03-28T09:00:53.395Z,99059.98
2024-03-28T09:01:56.374Z,99059.98
2024-03-28T09:02:59.117Z,99050.13
2024-03-28T09:04:02.116Z,99044.62
2024-03-28T09:05:06.490Z,99042.79
2024-03-28T09:06:10.724Z,99047.17
2024-03-28T09:07:15.192Z,99044.36
2024-03-28T09:08:19.691Z,99036.31
2024-03-28T09:09:25.006Z,99044.22
2024-03-28T09:10:29.390Z,99036.18
2024-03-28T09:11:32.005Z,99038.86
2024-03-28T09:12:37.258Z,99038.16
2024-03-28T09:13:40.210Z,99036.31
2024-03-28T09:14:42.962Z,99032.80
2024-03-28T09:15:45.958Z,99030.22
2024-03-28T09:16:50.075Z,99034.61
2024-03-28T09:17:53.032Z,99026.43
2024-03-28T09:18:56.513Z,99023.75
2024-03-28T09:19:59.869Z,99019.25
2024-03-28T09:21:06.530Z,99023.61
2024-03-28T09:22:09.949Z,99020.09
2024-03-28T09:23:13.087Z,99021.80
2024-03-28T09:24:16.505Z,99012.89
2024-03-28T09:25:22.027Z,99020.09
2024-03-28T09:26:25.248Z,99011.34
2024-03-28T09:27:28.852Z,99017.82
2024-03-28T09:28:32.349Z,99019.50
2024-03-28T09:29:35.970Z,99010.48
2024-03-28T09:30:40.908Z,99020.23
2024-03-28T09:31:45.308Z,99021.06
2024-03-28T09:32:48.382Z,99018.38
2024-03-28T09:33:51.084Z,99010.34
2024-03-28T09:34:53.723Z,99013.02
2024-03-28T09:35:56.292Z,99009.38
2024-03-28T09:36:59.366Z,99011.08
2024-03-28T09:38:02.596Z,99007.42
2024-03-28T09:39:07.167Z,99010.10
2024-03-28T09:40:11.219Z,99002.06
2024-03-28T09:41:29.206Z,99011.78
2024-03-28T09:42:33.745Z,99004.60
2024-03-28T09:43:36.476Z,99005.44
2024-03-28T09:44:39.258Z,99003.59
2024-03-28T09:45:43.265Z,99008.13
2024-03-28T09:46:51.019Z,99005.44
2024-03-28T09:47:58.561Z,99002.76
2024-03-28T09:49:01.798Z,99002.76
2024-03-28T09:50:09.636Z,99002.63
2024-03-28T09:51:13.371Z,99006.27
2024-03-28T09:52:16.681Z,99006.27
2024-03-28T09:53:19.428Z,99001.78
2024-03-28T09:54:22.685Z,98989.21
2024-03-28T09:55:27.919Z,98996.42
2024-03-28T09:56:31.382Z,98991.20
2024-03-28T09:57:34.912Z,98992.17
2024-03-28T09:58:39.357Z,98994.02
2024-03-28T09:59:42.461Z,98991.33
2024-03-28T10:00:45.611Z,98985.97
2024-03-28T10:01:48.175Z,98985.97
2024-03-28T10:02:54.427Z,98988.89
2024-03-28T10:04:06.960Z,98986.21
2024-03-28T10:05:10.518Z,98983.53
2024-03-28T10:06:14.107Z,98984.41
2024-03-28T10:07:18.254Z,98987.92
2024-03-28T10:08:21.337Z,98987.92
2024-03-28T10:09:24.354Z,98978.03
2024-03-28T10:10:28.763Z,98981.59
2024-03-28T10:11:32.058Z,98965.77
2024-03-28T10:12:36.368Z,98965.77
2024-03-28T10:13:40.314Z,98977.79
2024-03-28T10:14:55.168Z,98972.43
2024-03-28T10:15:58.496Z,98975.95
2024-03-28T10:17:02.621Z,98961.70
2024-03-28T10:18:08.551Z,98965.22
2024-03-28T10:19:11.365Z,98959.02
2024-03-28T10:20:15.508Z,98955.47
2024-03-28T10:21:21.700Z,98969.02
2024-03-28T10:22:25.337Z,98956.59
2024-03-28T10:23:29.393Z,98966.47
2024-03-28T10:24:34.098Z,98957.45
2024-03-28T10:25:37.642Z,98960.14
2024-03-28T10:26:40.998Z,98957.45
2024-03-28T10:27:44.039Z,98954.77
2024-03-28T10:28:46.666Z,98955.75
2024-03-28T10:29:58.092Z,98962.08
2024-03-28T10:31:01.881Z,98965.64
2024-03-28T10:32:06.845Z,98953.20
2024-03-28T10:33:14.134Z,98956.72
2024-03-28T10:34:33.069Z,98955.75
2024-03-28T10:35:39.299Z,98953.91
2024-03-28T10:36:42.392Z,98953.91
2024-03-28T10:37:56.032Z,98951.22
2024-03-28T10:38:53.342Z,98950.25
2024-03-28T10:39:56.004Z,98953.80
2024-03-28T10:40:59.298Z,98957.31
2024-03-28T10:42:02.782Z,98965.22
2024-03-28T10:43:10.772Z,98958.16
2024-03-28T10:44:14.295Z,98954.63
2024-03-28T10:45:17.200Z,98946.59
2024-03-28T10:46:21.269Z,98940.50
2024-03-28T10:47:25.773Z,98953.91
2024-03-28T10:48:30.304Z,98947.70
2024-03-28T10:49:42.567Z,98943.18
2024-03-28T10:51:02.013Z,98943.91
2024-03-28T10:52:07.925Z,98945.75
2024-03-28T10:53:14.734Z,98933.05
2024-03-28T10:54:24.413Z,98945.61
2024-03-28T10:55:32.832Z,98943.08
2024-03-28T10:56:36.278Z,98918.95
2024-03-28T10:57:41.258Z,98930.64
2024-03-28T10:58:44.286Z,98936.98
2024-03-28T10:59:48.316Z,98928.94
2024-03-28T11:00:55.570Z,98930.64
2024-03-28T11:01:56.859Z,98927.97
2024-03-28T11:03:06.072Z,98926.98
2024-03-28T11:04:11.632Z,98925.98
2024-03-28T11:05:14.317Z,98925.00
2024-03-28T11:06:17.329Z,98926.70
2024-03-28T11:07:21.055Z,98917.80
2024-03-28T11:08:24.012Z,98912.30
2024-03-28T11:09:28.807Z,98903.27
2024-03-28T11:10:31.522Z,98915.84
2024-03-28T11:11:34.346Z,98917.55
2024-03-28T11:12:38.972Z,98910.34
2024-03-28T11:13:42.166Z,98905.95
2024-03-28T11:14:59.063Z,98904.98
2024-03-28T11:16:06.123Z,98896.94
2024-03-28T11:17:09.448Z,98904.84
2024-03-28T11:18:15.102Z,98903.13
2024-03-28T11:19:17.816Z,98902.30
2024-03-28T11:20:21.031Z,98903.13
2024-03-28T11:21:30.838Z,98895.95
2024-03-28T11:22:34.231Z,98890.59
2024-03-28T11:23:36.925Z,98897.63
2024-03-28T11:24:39.781Z,98886.06
2024-03-28T11:25:46.837Z,98887.77
2024-03-28T11:26:58.918Z,98883.39
2024-03-28T11:28:09.518Z,98876.18
2024-03-28T11:29:15.193Z,98873.50
2024-03-28T11:30:19.435Z,98864.48
2024-03-28T11:31:25.022Z,98867.16
2024-03-28T11:32:29.318Z,98853.06
2024-03-28T11:33:40.503Z,98854.03
2024-03-28T11:34:44.160Z,98856.58
2024-03-28T11:35:46.753Z,98856.58
2024-03-28T11:36:53.636Z,98855.73
2024-03-28T11:38:07.954Z,98868.42
2024-03-28T11:39:11.896Z,98858.67
2024-03-28T11:40:14.840Z,98858.81
2024-03-28T11:41:17.763Z,98853.45
2024-03-28T11:42:32.251Z,98850.77
2024-03-28T11:43:26.619Z,98848.09
2024-03-28T11:44:31.261Z,98833.55
2024-03-28T11:45:34.842Z,98833.55
2024-03-28T11:46:37.882Z,98845.41
2024-03-28T11:47:40.524Z,98842.87
2024-03-28T11:48:43.618Z,98843.73
2024-03-28T11:49:46.437Z,98825.80
2024-03-28T11:50:50.342Z,98821.28
2024-03-28T11:51:53.208Z,98834.54
2024-03-28T11:52:57.235Z,98825.52
2024-03-28T11:54:04.747Z,98823.70
2024-03-28T11:55:08.198Z,98827.22
2024-03-28T11:56:14.578Z,98812.84
2024-03-28T11:57:20.493Z,98818.20
2024-03-28T11:58:25.558Z,98820.88
2024-03-28T11:59:28.302Z,98822.55
2024-03-28T12:00:31.568Z,98829.77
2024-03-28T12:01:36.816Z,98821.58
2024-03-28T12:02:39.575Z,98818.89
2024-03-28T12:03:45.097Z,98814.51
2024-03-28T12:04:49.596Z,98821.72
2024-03-28T12:05:52.845Z,98811.83
2024-03-28T12:06:58.345Z,98820.88
2024-03-28T12:08:01.327Z,98828.06
2024-03-28T12:09:06.141Z,98827.22
2024-03-28T12:10:10.539Z,98821.86
2024-03-28T12:11:16.595Z,98811.13
2024-03-28T12:12:19.200Z,98821.86
2024-03-28T12:13:21.938Z,98827.22
2024-03-28T12:14:25.311Z,98826.38
2024-03-28T12:15:28.995Z,98811.97
2024-03-28T12:16:32.416Z,98815.52
2024-03-28T12:17:35.926Z,98820.73
2024-03-28T12:18:39.091Z,98808.17
2024-03-28T12:19:42.663Z,98815.38
2024-03-28T12:20:46.146Z,98808.17
2024-03-28T12:21:50.643Z,98810.85
2024-03-28T12:22:54.474Z,98800.12
2024-03-28T12:23:57.215Z,98805.48
2024-03-28T12:25:01.354Z,98799.14
2024-03-28T12:26:04.520Z,98794.77
2024-03-28T12:27:14.862Z,98790.27
2024-03-28T12:28:20.903Z,98803.67
2024-03-28T12:29:26.584Z,98793.78
2024-03-28T12:30:30.539Z,98799.14
2024-03-28T12:31:33.694Z,98804.36
2024-03-28T12:32:37.242Z,98794.62